createdAt,value
2019-04-30T00:01:59.991Z,101034.63
2019-04-30T00:04:37.289Z,101035.00
2019-04-30T00:07:02.617Z,101035.42
2019-04-30T00:09:32.641Z,101036.13
2019-04-30T00:12:01.524Z,101035.11
2019-04-30T00:14:37.313Z,101035.97
2019-04-30T00:17:00.574Z,101026.38
2019-04-30T00:19:29.535Z,101030.41
2019-04-30T00:22:00.423Z,101027.80
2019-04-30T00:24:28.602Z,101030.54
2019-04-30T00:26:57.373Z,101033.78
2019-04-30T00:29:30.165Z,101036.23
2019-04-30T00:31:57.701Z,101037.08
2019-04-30T00:34:30.901Z,101030.20
2019-04-30T00:36:57.756Z,101034.88
2019-04-30T00:39:27.264Z,101033.04
2019-04-30T00:41:56.725Z,101029.02
2019-04-30T00:44:28.276Z,101032.59
2019-04-30T00:46:55.988Z,101024.84
2019-04-30T00:49:26.624Z,101031.72
2019-04-30T00:51:58.150Z,101028.06
2019-04-30T00:54:28.014Z,101024.03
2019-04-30T00:56:57.530Z,101020.45
2019-04-30T00:59:26.266Z,101023.65
2019-04-30T01:02:12.753Z,101017.86
2019-04-30T01:04:46.867Z,101018.11
2019-04-30T01:07:16.044Z,101020.83
2019-04-30T01:09:49.544Z,101018.16
2019-04-30T01:12:17.365Z,101022.89
2019-04-30T01:14:45.598Z,101023.67
2019-04-30T01:17:14.339Z,101022.59
2019-04-30T01:19:45.999Z,101012.45
2019-04-30T01:22:13.556Z,101010.15
2019-04-30T01:24:42.425Z,101008.50
2019-04-30T01:27:11.727Z,101004.59
2019-04-30T01:29:44.020Z,101001.32
2019-04-30T01:32:17.549Z,100999.62
2019-04-30T01:34:44.254Z,100989.87
2019-04-30T01:37:12.597Z,100999.00
2019-04-30T01:39:41.313Z,100987.67
2019-04-30T01:42:11.461Z,100996.50
2019-04-30T01:44:43.397Z,100996.05
2019-04-30T01:47:10.689Z,100991.53
2019-04-30T01:49:42.675Z,100990.20
2019-04-30T01:52:09.818Z,100987.00
2019-04-30T01:54:39.203Z,100993.52
2019-04-30T01:57:26.070Z,101001.34
2019-04-30T02:00:29.331Z,101000.41
2019-04-30T02:02:59.252Z,101003.29
2019-04-30T02:05:28.740Z,100999.45
2019-04-30T02:07:58.485Z,101001.22
2019-04-30T02:10:28.560Z,101004.16
2019-04-30T02:12:59.101Z,101012.61
2019-04-30T02:15:29.220Z,101009.90
2019-04-30T02:17:58.760Z,101010.91
2019-04-30T02:20:28.665Z,101005.41
2019-04-30T02:22:58.620Z,101008.97
2019-04-30T02:25:29.402Z,101013.77
2019-04-30T02:27:59.098Z,101014.41
2019-04-30T02:30:30.987Z,101014.22
2019-04-30T02:33:00.644Z,101021.39
2019-04-30T02:36:00.421Z,101017.69
2019-04-30T02:38:32.843Z,101009.04
2019-04-30T02:41:03.080Z,101008.82
2019-04-30T02:43:33.661Z,101007.50
2019-04-30T02:46:04.337Z,100996.66
2019-04-30T02:48:36.153Z,101004.54
2019-04-30T02:51:10.118Z,100998.83
2019-04-30T02:54:23.920Z,101004.31
2019-04-30T02:57:11.808Z,101002.19
2019-04-30T02:59:59.705Z,101001.92
2019-04-30T03:02:29.278Z,101001.32
2019-04-30T03:05:00.284Z,101007.07
2019-04-30T03:07:29.494Z,101003.41
2019-04-30T03:09:59.878Z,100996.98
2019-04-30T03:12:33.119Z,100994.98
2019-04-30T03:15:00.446Z,100993.73
2019-04-30T03:17:50.650Z,100993.63
2019-04-30T03:20:39.448Z,100995.53
2019-04-30T03:23:09.842Z,100993.42
2019-04-30T03:25:40.353Z,100990.53
2019-04-30T03:28:09.754Z,100995.58
2019-04-30T03:30:41.928Z,100985.58
2019-04-30T03:33:12.829Z,100996.43
2019-04-30T03:35:42.240Z,100990.31
2019-04-30T03:38:09.893Z,100994.02
2019-04-30T03:40:40.460Z,101000.34
2019-04-30T03:43:10.326Z,100993.33
2019-04-30T03:45:40.187Z,100988.98
2019-04-30T03:48:10.158Z,100994.73
2019-04-30T03:50:51.352Z,100990.45
2019-04-30T03:53:10.458Z,100989.77
2019-04-30T03:55:40.094Z,100995.16
2019-04-30T03:58:09.336Z,100995.67
2019-04-30T04:00:46.704Z,100993.66
2019-04-30T04:03:15.489Z,100991.27
2019-04-30T04:05:51.959Z,100991.52
2019-04-30T04:08:25.960Z,100991.88
2019-04-30T04:11:00.530Z,100998.00
2019-04-30T04:13:30.011Z,101001.73
2019-04-30T04:15:59.968Z,100995.34
2019-04-30T04:18:30.182Z,100996.57
2019-04-30T04:21:08.911Z,100999.16
2019-04-30T04:23:32.767Z,100996.20
2019-04-30T04:25:59.972Z,100997.42
2019-04-30T04:28:29.957Z,101001.44
2019-04-30T04:31:00.153Z,101003.08
2019-04-30T04:33:29.623Z,101006.39
2019-04-30T04:35:59.746Z,101011.81
2019-04-30T04:38:30.382Z,101007.59
2019-04-30T04:41:02.580Z,101002.67
2019-04-30T04:43:30.068Z,101012.75
2019-04-30T04:45:59.423Z,101021.17
2019-04-30T04:48:29.782Z,101020.25
2019-04-30T04:50:59.990Z,101025.45
2019-04-30T04:53:30.369Z,101026.08
2019-04-30T04:55:59.993Z,101027.58
2019-04-30T04:58:30.249Z,101027.43
2019-04-30T05:00:59.594Z,101030.13
2019-04-30T05:03:32.414Z,101032.09
2019-04-30T05:06:02.698Z,101022.24
2019-04-30T05:08:31.738Z,101027.48
2019-04-30T05:11:00.439Z,101030.67
2019-04-30T05:13:29.204Z,101020.22
2019-04-30T05:15:59.368Z,101021.31
2019-04-30T05:18:29.833Z,101028.89
2019-04-30T05:20:59.110Z,101023.04
2019-04-30T05:23:29.840Z,101025.45
2019-04-30T05:25:59.766Z,101030.55
2019-04-30T05:28:30.125Z,101021.33
2019-04-30T05:30:59.598Z,101022.67
2019-04-30T05:33:28.680Z,101027.47
2019-04-30T05:35:59.412Z,101018.98
2019-04-30T05:38:31.096Z,101026.05
2019-04-30T05:40:59.556Z,101032.93
2019-04-30T05:43:28.973Z,101033.23
2019-04-30T05:45:58.667Z,101040.50
2019-04-30T05:48:28.564Z,101038.20
2019-04-30T05:50:59.151Z,101040.47
2019-04-30T05:53:28.693Z,101039.64
2019-04-30T05:55:59.191Z,101037.77
2019-04-30T05:58:30.032Z,101042.79
2019-04-30T06:00:59.726Z,101043.31
2019-04-30T06:03:32.956Z,101033.98
2019-04-30T06:05:59.592Z,101042.83
2019-04-30T06:08:33.555Z,101041.92
2019-04-30T06:11:09.360Z,101039.39
2019-04-30T06:14:12.545Z,101042.53
2019-04-30T06:16:41.294Z,101043.17
2019-04-30T06:19:10.002Z,101044.41
2019-04-30T06:21:39.125Z,101045.94
2019-04-30T06:24:08.261Z,101046.70
2019-04-30T06:26:39.382Z,101051.84
2019-04-30T06:29:09.204Z,101051.92
2019-04-30T06:31:40.391Z,101051.67
2019-04-30T06:34:08.804Z,101053.63
2019-04-30T06:36:39.464Z,101054.41
2019-04-30T06:39:08.660Z,101058.02
2019-04-30T06:41:39.518Z,101058.33
2019-04-30T06:44:09.697Z,101056.14
2019-04-30T06:46:39.103Z,101059.55
2019-04-30T06:49:09.466Z,101062.95
2019-04-30T06:51:38.932Z,101064.46
2019-04-30T06:54:08.577Z,101066.27
2019-04-30T06:56:38.748Z,101061.80
2019-04-30T06:59:09.230Z,101060.44
2019-04-30T07:01:39.639Z,101061.44
2019-04-30T07:04:10.379Z,101055.81
2019-04-30T07:06:43.870Z,101057.37
2019-04-30T07:09:33.516Z,101059.45
2019-04-30T07:12:27.638Z,101056.88
2019-04-30T07:14:53.309Z,101057.81
2019-04-30T07:17:33.973Z,101060.57
2019-04-30T07:20:02.983Z,101051.96
2019-04-30T07:22:40.190Z,101056.97
2019-04-30T07:25:03.087Z,101057.34
2019-04-30T07:27:32.485Z,101055.28
2019-04-30T07:30:01.210Z,101054.88
2019-04-30T07:32:29.908Z,101054.64
2019-04-30T07:34:59.431Z,101058.73
2019-04-30T07:37:29.328Z,101052.09
2019-04-30T07:39:59.752Z,101050.30
2019-04-30T07:42:29.492Z,101054.05
2019-04-30T07:45:00.677Z,101053.92
2019-04-30T07:47:29.753Z,101060.66
2019-04-30T07:50:00.768Z,101061.14
2019-04-30T07:52:34.388Z,101058.44
2019-04-30T07:55:06.927Z,101057.11
2019-04-30T07:57:35.634Z,101064.13
2019-04-30T08:00:10.229Z,101066.05
2019-04-30T08:02:46.197Z,101066.95
2019-04-30T08:05:42.296Z,101069.56
2019-04-30T08:08:20.793Z,101066.45
2019-04-30T08:10:41.955Z,101065.58
2019-04-30T08:13:15.019Z,101062.79
2019-04-30T08:15:42.712Z,101074.78
2019-04-30T08:18:11.382Z,101072.41
2019-04-30T08:20:40.070Z,101072.59
2019-04-30T08:23:20.254Z,101074.50
2019-04-30T08:25:39.192Z,101072.27
2019-04-30T08:28:09.092Z,101077.63
2019-04-30T08:30:39.164Z,101072.56
2019-04-30T08:33:09.494Z,101077.68
2019-04-30T08:35:39.790Z,101075.61
2019-04-30T08:38:10.557Z,101076.45
2019-04-30T08:40:47.332Z,101076.60
2019-04-30T08:43:09.777Z,101072.22
2019-04-30T08:45:38.677Z,101066.34
2019-04-30T08:48:09.103Z,101065.05
2019-04-30T08:50:39.541Z,101067.09
2019-04-30T08:53:10.577Z,101067.80
2019-04-30T08:55:44.435Z,101069.67
2019-04-30T08:58:16.094Z,101065.50
2019-04-30T09:00:45.040Z,101063.19
2019-04-30T09:03:19.339Z,101062.26
2019-04-30T09:06:04.863Z,101066.14
2019-04-30T09:08:34.014Z,101061.48
2019-04-30T09:11:02.714Z,101057.42
2019-04-30T09:13:31.390Z,101062.25
2019-04-30T09:16:00.380Z,101066.39
2019-04-30T09:18:29.325Z,101059.13
2019-04-30T09:21:05.993Z,101061.02
2019-04-30T09:23:42.997Z,101066.50
2019-04-30T09:25:58.912Z,101055.72
2019-04-30T09:28:29.462Z,101060.44
2019-04-30T09:30:58.803Z,101062.67
2019-04-30T09:33:29.441Z,101057.56
2019-04-30T09:36:01.412Z,101053.17
2019-04-30T09:38:30.889Z,101054.70
2019-04-30T09:40:59.920Z,101056.80
2019-04-30T09:43:28.760Z,101055.70
2019-04-30T09:45:59.277Z,101058.20
2019-04-30T09:48:30.410Z,101054.13
2019-04-30T09:51:00.826Z,101049.38
2019-04-30T09:53:30.249Z,101053.34
2019-04-30T09:55:59.678Z,101046.25
2019-04-30T09:58:29.996Z,101046.39
2019-04-30T10:01:00.402Z,101052.95
2019-04-30T10:03:31.814Z,101055.91
2019-04-30T10:06:03.111Z,101041.52
2019-04-30T10:08:32.312Z,101041.52
2019-04-30T10:11:10.449Z,101047.59
2019-04-30T10:13:39.158Z,101037.08
2019-04-30T10:16:39.589Z,101027.77
2019-04-30T10:19:10.230Z,101028.01
2019-04-30T10:21:39.662Z,101027.48
2019-04-30T10:24:15.336Z,101023.95
2019-04-30T10:26:41.721Z,101013.97
2019-04-30T10:29:10.575Z,101022.42
2019-04-30T10:31:39.283Z,101022.64
2019-04-30T10:34:09.652Z,101011.83
2019-04-30T10:36:41.445Z,101021.52
2019-04-30T10:39:10.502Z,101012.33
2019-04-30T10:41:39.592Z,101012.28
2019-04-30T10:44:08.924Z,101000.77
2019-04-30T10:46:37.732Z,101005.23
2019-04-30T10:49:06.526Z,101000.27
2019-04-30T10:51:35.266Z,101001.34
2019-04-30T10:54:04.039Z,101000.81
2019-04-30T10:56:33.440Z,100993.92
2019-04-30T10:59:02.165Z,100989.54
2019-04-30T11:01:30.935Z,100987.20
2019-04-30T11:03:59.626Z,100986.19
2019-04-30T11:06:28.333Z,100989.52
2019-04-30T11:08:57.130Z,100980.48
2019-04-30T11:11:26.062Z,100976.70
2019-04-30T11:13:54.779Z,100982.98
2019-04-30T11:16:23.541Z,100976.92
2019-04-30T11:18:52.766Z,100975.59
2019-04-30T11:21:22.485Z,100974.55
2019-04-30T11:23:52.019Z,100977.40
2019-04-30T11:26:21.390Z,100965.44
2019-04-30T11:28:50.658Z,100965.44
2019-04-30T11:31:44.661Z,100965.45
2019-04-30T11:34:13.712Z,100968.00
2019-04-30T11:36:42.432Z,100968.00
2019-04-30T11:39:18.622Z,100963.84
2019-04-30T11:41:47.993Z,100955.59
2019-04-30T11:44:28.542Z,100956.41
2019-04-30T11:47:25.090Z,100949.95
2019-04-30T11:49:54.300Z,100961.28
2019-04-30T11:52:23.203Z,100951.83
2019-04-30T11:54:54.477Z,100944.27
2019-04-30T11:57:22.623Z,100938.34
2019-04-30T11:59:51.485Z,100932.15
2019-04-30T12:02:24.989Z,100934.13
2019-04-30T12:04:53.701Z,100939.42
2019-04-30T12:07:31.498Z,100923.08
2019-04-30T12:10:11.180Z,100923.08
2019-04-30T12:12:39.876Z,100914.28
2019-04-30T12:15:09.284Z,100915.98
2019-04-30T12:17:38.097Z,100912.17
2019-04-30T12:20:08.618Z,100909.53
2019-04-30T12:22:39.599Z,100912.41
2019-04-30T12:25:11.657Z,100910.80
2019-04-30T12:27:40.373Z,100883.31
2019-04-30T12:30:10.189Z,100910.50
2019-04-30T12:32:39.303Z,100908.63
2019-04-30T12:35:09.252Z,100901.55
2019-04-30T12:37:39.055Z,100904.58
2019-04-30T12:40:10.845Z,100901.48
2019-04-30T12:42:39.625Z,100890.19
2019-04-30T12:45:09.632Z,100891.55
2019-04-30T12:47:42.407Z,100892.42
2019-04-30T12:50:16.956Z,100892.42
2019-04-30T12:55:50.700Z,100880.22
2019-04-30T12:58:20.729Z,100873.27
2019-04-30T13:00:49.594Z,100871.39
2019-04-30T13:03:18.268Z,100869.05
2019-04-30T13:05:47.171Z,100873.10
2019-04-30T13:08:16.854Z,100859.93
2019-04-30T13:10:46.596Z,100855.04
2019-04-30T13:13:16.021Z,100855.70
2019-04-30T13:15:45.101Z,100850.98
2019-04-30T13:18:13.766Z,100853.47
2019-04-30T13:20:42.591Z,100852.92
2019-04-30T13:23:11.260Z,100838.36
2019-04-30T13:25:50.727Z,100835.30
2019-04-30T13:28:14.991Z,100847.11
2019-04-30T13:30:43.679Z,100839.04
2019-04-30T13:33:24.451Z,100836.63
2019-04-30T13:35:53.137Z,100840.44
2019-04-30T13:38:30.124Z,100835.01
2019-04-30T13:41:15.389Z,100833.06
2019-04-30T13:44:02.024Z,100824.05
2019-04-30T13:46:30.771Z,100827.58
2019-04-30T13:48:59.539Z,100828.36
2019-04-30T13:51:28.210Z,100828.16
2019-04-30T13:53:56.897Z,100808.84
2019-04-30T13:56:25.595Z,100820.70
2019-04-30T13:58:54.275Z,100813.05
2019-04-30T14:01:22.984Z,100807.52
2019-04-30T14:03:59.279Z,100809.42
2019-04-30T14:06:29.461Z,100805.05
2019-04-30T14:08:59.834Z,100807.55
2019-04-30T14:11:28.514Z,100802.65
2019-04-30T14:13:57.204Z,100812.77
2019-04-30T14:16:25.886Z,100793.46
2019-04-30T14:18:54.551Z,100797.62
2019-04-30T14:21:34.493Z,100797.33
2019-04-30T14:23:53.875Z,100799.33
2019-04-30T14:26:22.564Z,100798.86
2019-04-30T14:28:51.229Z,100787.51
2019-04-30T14:31:20.854Z,100792.11
2019-04-30T14:33:49.667Z,100793.45
2019-04-30T14:36:19.397Z,100790.48
2019-04-30T14:38:48.852Z,100787.47
2019-04-30T14:41:18.182Z,100782.17
2019-04-30T14:43:52.656Z,100781.76
2019-04-30T14:46:41.148Z,100778.06
2019-04-30T14:49:31.805Z,100778.28
2019-04-30T14:52:01.116Z,100774.50
2019-04-30T14:54:50.461Z,100776.05
2019-04-30T14:57:30.087Z,100773.17
2019-04-30T15:00:32.904Z,100770.16
2019-04-30T15:03:09.321Z,100774.53
2019-04-30T15:05:40.441Z,100764.75
2019-04-30T15:08:08.582Z,100764.75
2019-04-30T15:10:37.405Z,100766.78
2019-04-30T15:13:06.172Z,100768.86
2019-04-30T15:15:35.792Z,100764.48
2019-04-30T15:18:05.253Z,100757.55
2019-04-30T15:20:33.918Z,100761.13
2019-04-30T15:23:27.710Z,100762.19
2019-04-30T15:25:56.392Z,100762.69
2019-04-30T15:28:32.477Z,100760.96
2019-04-30T15:30:55.562Z,100757.36
2019-04-30T15:33:42.097Z,100759.39
2019-04-30T15:36:10.798Z,100759.49
2019-04-30T15:38:57.172Z,100755.13
2019-04-30T15:41:26.017Z,100749.20
2019-04-30T15:43:54.681Z,100752.49
2019-04-30T15:46:23.441Z,100747.17
2019-04-30T15:48:52.216Z,100751.10
2019-04-30T15:51:20.963Z,100743.53
2019-04-30T15:53:49.647Z,100743.53
2019-04-30T15:56:19.267Z,100747.12
2019-04-30T15:59:08.997Z,100750.02
2019-04-30T16:01:38.672Z,100750.02
2019-04-30T16:04:10.333Z,100748.78
2019-04-30T16:06:39.026Z,100736.05
2019-04-30T16:09:10.719Z,100748.91
2019-04-30T16:11:49.216Z,100742.52
2019-04-30T16:14:24.736Z,100745.80
2019-04-30T16:17:15.473Z,100740.75
2019-04-30T16:19:44.174Z,100735.14
2019-04-30T16:22:12.993Z,100731.47
2019-04-30T16:24:41.663Z,100730.25
2019-04-30T16:27:10.443Z,100717.80
2019-04-30T16:29:40.742Z,100730.09
2019-04-30T16:32:09.631Z,100727.94
2019-04-30T16:34:39.007Z,100729.41
2019-04-30T16:37:07.820Z,100724.66
2019-04-30T16:39:36.570Z,100722.04
2019-04-30T16:42:05.390Z,100724.47
2019-04-30T16:44:34.053Z,100719.91
2019-04-30T16:47:12.978Z,100717.45
2019-04-30T16:49:33.196Z,100716.89
2019-04-30T16:52:01.864Z,100713.66
2019-04-30T16:54:30.635Z,100719.58
2019-04-30T16:57:04.193Z,100714.42
2019-04-30T16:59:35.598Z,100810.33
2019-04-30T17:02:04.468Z,100712.58
2019-04-30T17:04:39.530Z,100717.83
2019-04-30T17:07:15.697Z,100718.25
2019-04-30T17:09:54.857Z,100725.09
2019-04-30T17:12:39.474Z,100722.01
2019-04-30T17:15:20.440Z,100724.78
2019-04-30T17:17:49.848Z,100719.42
2019-04-30T17:20:20.821Z,100724.23
2019-04-30T17:22:49.708Z,100727.38
2019-04-30T17:25:19.057Z,100721.23
2019-04-30T17:27:47.812Z,100720.23
2019-04-30T17:30:19.322Z,100718.85
2019-04-30T17:32:49.680Z,100719.36
2019-04-30T17:35:19.043Z,100720.03
2019-04-30T17:37:47.919Z,100729.31
2019-04-30T17:40:19.089Z,100721.03
2019-04-30T17:42:47.543Z,100724.07
2019-04-30T17:45:16.689Z,100717.16
2019-04-30T17:47:45.351Z,100721.27
2019-04-30T17:50:14.195Z,100730.23
2019-04-30T17:52:42.939Z,100722.72
2019-04-30T17:55:11.852Z,100723.80
2019-04-30T17:57:40.549Z,100727.88
2019-04-30T18:00:18.787Z,100728.41
2019-04-30T18:02:41.600Z,100725.98
2019-04-30T18:05:11.379Z,100729.61
2019-04-30T18:07:40.295Z,100728.37
2019-04-30T18:10:11.487Z,100728.44
2019-04-30T18:12:40.178Z,100727.83
2019-04-30T18:15:15.042Z,100735.05
2019-04-30T18:17:46.522Z,100729.97
2019-04-30T18:20:30.582Z,100736.44
2019-04-30T18:23:09.196Z,100740.77
2019-04-30T18:25:45.378Z,100736.13
2019-04-30T18:28:14.071Z,100733.19
2019-04-30T18:30:42.766Z,100735.80
2019-04-30T18:33:11.435Z,100732.16
2019-04-30T18:35:40.166Z,100742.16
2019-04-30T18:38:09.760Z,100737.68
2019-04-30T18:40:39.737Z,100736.33
2019-04-30T18:43:08.722Z,100733.09
2019-04-30T18:45:39.598Z,100749.03
2019-04-30T18:48:09.719Z,100748.86
2019-04-30T18:50:38.373Z,100748.55
2019-04-30T18:53:13.182Z,100750.42
2019-04-30T18:55:41.853Z,100756.98
2019-04-30T18:58:10.551Z,100753.78
2019-04-30T19:00:41.639Z,100756.90
2019-04-30T19:03:10.496Z,100758.67
2019-04-30T19:05:41.091Z,100758.77
2019-04-30T19:08:16.046Z,100758.45
2019-04-30T19:11:08.981Z,100759.64
2019-04-30T19:13:59.907Z,100758.63
2019-04-30T19:16:49.510Z,100760.12
2019-04-30T19:19:36.815Z,100768.45
2019-04-30T19:22:05.654Z,100766.95
2019-04-30T19:24:34.322Z,100767.12
2019-04-30T19:27:02.990Z,100768.93
2019-04-30T19:29:31.946Z,100771.59
2019-04-30T19:32:00.684Z,100771.69
2019-04-30T19:34:31.487Z,100771.19
2019-04-30T19:36:59.755Z,100766.78
2019-04-30T19:39:29.250Z,100767.44
2019-04-30T19:41:58.388Z,100770.33
2019-04-30T19:44:29.303Z,100774.75
2019-04-30T19:46:58.645Z,100773.78
2019-04-30T19:49:27.336Z,100777.70
2019-04-30T19:52:07.656Z,100772.33
2019-04-30T19:54:26.428Z,100781.20
2019-04-30T19:56:55.161Z,100779.61
2019-04-30T19:59:23.853Z,100774.80
2019-04-30T20:01:52.514Z,100780.33
2019-04-30T20:04:32.592Z,100782.09
2019-04-30T20:06:51.583Z,100786.47
2019-04-30T20:09:20.246Z,100777.08
2019-04-30T20:11:49.351Z,100783.42
2019-04-30T20:14:18.713Z,100786.67
2019-04-30T20:16:48.655Z,100779.12
2019-04-30T20:19:17.514Z,100775.63
2019-04-30T20:21:53.092Z,100787.36
2019-04-30T20:24:16.591Z,100787.23
2019-04-30T20:26:45.252Z,100789.06
2019-04-30T20:29:13.948Z,100787.77
2019-04-30T20:31:42.641Z,100781.90
2019-04-30T20:34:11.298Z,100783.23
2019-04-30T20:36:39.962Z,100777.64
2019-04-30T20:39:20.547Z,100771.16
2019-04-30T20:41:53.373Z,100778.33
2019-04-30T20:44:22.206Z,100773.05
2019-04-30T20:46:50.893Z,100775.86
2019-04-30T20:49:19.693Z,100767.07
2019-04-30T20:51:55.646Z,100768.86
2019-04-30T20:54:19.030Z,100766.81
2019-04-30T20:56:48.358Z,100771.37
2019-04-30T20:59:19.045Z,100773.55
2019-04-30T21:01:49.012Z,100773.30
2019-04-30T21:04:20.618Z,100769.09
2019-04-30T21:06:49.661Z,100766.65
2019-04-30T21:09:18.370Z,100771.28
2019-04-30T21:11:48.883Z,100766.84
2019-04-30T21:14:19.192Z,100773.80
2019-04-30T21:16:47.867Z,100762.31
2019-04-30T21:19:16.537Z,100766.69
2019-04-30T21:21:45.205Z,100772.31
2019-04-30T21:24:13.958Z,100767.41
2019-04-30T21:26:42.619Z,100766.80
2019-04-30T21:29:15.632Z,100771.48
2019-04-30T21:31:55.321Z,100764.88
2019-04-30T21:34:37.027Z,100772.67
2019-04-30T21:37:05.707Z,100771.19
2019-04-30T21:39:34.397Z,100774.31
2019-04-30T21:42:03.068Z,100774.56
2019-04-30T21:44:31.728Z,100777.69
2019-04-30T21:47:00.420Z,100775.80
2019-04-30T21:49:29.093Z,100775.95
2019-04-30T21:51:57.771Z,100770.66
2019-04-30T21:54:28.326Z,100770.94
2019-04-30T21:56:56.944Z,100774.03
2019-04-30T21:59:25.620Z,100766.56
2019-04-30T22:01:54.586Z,100763.37
2019-04-30T22:04:23.273Z,100763.48
2019-04-30T22:06:52.030Z,100759.02
2019-04-30T22:09:21.227Z,100749.40
2019-04-30T22:11:49.918Z,100750.77
2019-04-30T22:14:18.581Z,100754.54
2019-04-30T22:16:49.319Z,100749.69
2019-04-30T22:19:17.648Z,100749.26
2019-04-30T22:21:46.329Z,100752.05
2019-04-30T22:24:15.018Z,100753.77
2019-04-30T22:26:43.756Z,100749.69
2019-04-30T22:29:12.545Z,100746.95
2019-04-30T22:31:41.273Z,100744.30
2019-04-30T22:34:09.938Z,100747.44
2019-04-30T22:36:42.531Z,100752.77
2019-04-30T22:39:31.753Z,100746.03
2019-04-30T22:42:20.680Z,100749.20
2019-04-30T22:44:49.392Z,100753.18
2019-04-30T22:47:18.142Z,100747.74
2019-04-30T22:49:46.800Z,100751.25
2019-04-30T22:52:15.465Z,100746.41
2019-04-30T22:54:44.147Z,100745.48
2019-04-30T22:57:12.818Z,100745.97
2019-04-30T22:59:49.677Z,100755.91
2019-04-30T23:02:19.017Z,100761.20
2019-04-30T23:04:48.069Z,100755.43
2019-04-30T23:07:16.734Z,100749.61
2019-04-30T23:09:45.435Z,100751.77
2019-04-30T23:12:14.427Z,100743.10
2019-04-30T23:14:43.359Z,100741.25
2019-04-30T23:17:12.048Z,100746.63
2019-04-30T23:19:40.708Z,100744.03
2019-04-30T23:22:09.365Z,100742.59
2019-04-30T23:24:38.051Z,100737.31
2019-04-30T23:27:06.728Z,100735.81
2019-04-30T23:29:35.410Z,100738.80
2019-04-30T23:32:04.095Z,100735.02
2019-04-30T23:34:32.764Z,100732.40
2019-04-30T23:37:01.458Z,100729.47
2019-04-30T23:39:30.148Z,100733.57
2019-04-30T23:41:58.808Z,100731.52
2019-04-30T23:44:27.467Z,100735.06
2019-04-30T23:46:56.156Z,100734.89
2019-04-30T23:49:24.815Z,100723.55
2019-04-30T23:51:53.494Z,100716.42
2019-04-30T23:54:22.182Z,100712.23
2019-04-30T23:56:50.853Z,100705.63
2019-04-30T23:59:19.514Z,100705.57
